sensor_id;sensor_type;location;lat;lon;timestamp;P1;durP1;ratioP1;P2;durP2;ratioP2
13868;SDS011;7004;48.206;16.402;2023-05-23T00:01:50;10.30;;;7.97;;
13868;SDS011;7004;48.206;16.402;2023-05-23T00:04:19;9.63;;;8.03;;
13868;SDS011;7004;48.206;16.402;2023-05-23T00:06:45;9.93;;;8.17;;
13868;SDS011;7004;48.206;16.402;2023-05-23T00:09:14;11.50;;;8.03;;
13868;SDS011;7004;48.206;16.402;2023-05-23T00:11:41;9.73;;;8.10;;
13868;SDS011;7004;48.206;16.402;2023-05-23T00:14:11;10.50;;;8.27;;
13868;SDS011;7004;48.206;16.402;2023-05-23T00:16:41;8.77;;;7.87;;
13868;SDS011;7004;48.206;16.402;2023-05-23T00:19:09;10.93;;;8.73;;
13868;SDS011;7004;48.206;16.402;2023-05-23T00:21:39;10.73;;;7.80;;
13868;SDS011;7004;48.206;16.402;2023-05-23T00:24:07;10.37;;;8.83;;
13868;SDS011;7004;48.206;16.402;2023-05-23T00:26:37;9.97;;;8.30;;
13868;SDS011;7004;48.206;16.402;2023-05-23T00:29:03;10.07;;;8.30;;
13868;SDS011;7004;48.206;16.402;2023-05-23T00:31:29;9.27;;;8.30;;
13868;SDS011;7004;48.206;16.402;2023-05-23T00:33:56;8.93;;;8.03;;
13868;SDS011;7004;48.206;16.402;2023-05-23T00:36:22;11.43;;;8.73;;
13868;SDS011;7004;48.206;16.402;2023-05-23T00:38:48;10.07;;;8.53;;
13868;SDS011;7004;48.206;16.402;2023-05-23T00:41:14;10.27;;;8.07;;
13868;SDS011;7004;48.206;16.402;2023-05-23T00:43:43;10.13;;;8.90;;
13868;SDS011;7004;48.206;16.402;2023-05-23T00:46:09;12.47;;;9.37;;
13868;SDS011;7004;48.206;16.402;2023-05-23T00:48:36;11.00;;;9.10;;
13868;SDS011;7004;48.206;16.402;2023-05-23T00:51:03;12.00;;;9.07;;
13868;SDS011;7004;48.206;16.402;2023-05-23T00:53:29;9.67;;;8.67;;
13868;SDS011;7004;48.206;16.402;2023-05-23T00:55:55;10.37;;;9.00;;
13868;SDS011;7004;48.206;16.402;2023-05-23T00:58:22;11.43;;;8.97;;
13868;SDS011;7004;48.206;16.402;2023-05-23T01:00:48;10.20;;;9.07;;
13868;SDS011;7004;48.206;16.402;2023-05-23T01:03:14;11.80;;;9.47;;
13868;SDS011;7004;48.206;16.402;2023-05-23T01:05:43;10.23;;;9.00;;
13868;SDS011;7004;48.206;16.402;2023-05-23T01:08:09;11.73;;;9.27;;
13868;SDS011;7004;48.206;16.402;2023-05-23T01:10:35;10.27;;;8.80;;
13868;SDS011;7004;48.206;16.402;2023-05-23T01:15:44;11.97;;;10.07;;
13868;SDS011;7004;48.206;16.402;2023-05-23T01:21:42;12.17;;;9.13;;
13868;SDS011;7004;48.206;16.402;2023-05-23T01:27:23;13.70;;;9.40;;
13868;SDS011;7004;48.206;16.402;2023-05-23T01:30:18;11.67;;;9.33;;
13868;SDS011;7004;48.206;16.402;2023-05-23T01:32:47;12.13;;;9.57;;
13868;SDS011;7004;48.206;16.402;2023-05-23T01:35:21;11.30;;;10.10;;
13868;SDS011;7004;48.206;16.402;2023-05-23T01:37:55;12.50;;;10.13;;
13868;SDS011;7004;48.206;16.402;2023-05-23T01:40:22;12.40;;;10.27;;
13868;SDS011;7004;48.206;16.402;2023-05-23T01:42:49;11.07;;;9.57;;
13868;SDS011;7004;48.206;16.402;2023-05-23T01:45:19;12.27;;;9.97;;
13868;SDS011;7004;48.206;16.402;2023-05-23T01:47:46;10.97;;;9.10;;
13868;SDS011;7004;48.206;16.402;2023-05-23T01:50:15;12.77;;;9.73;;
13868;SDS011;7004;48.206;16.402;2023-05-23T01:52:42;13.10;;;10.13;;
13868;SDS011;7004;48.206;16.402;2023-05-23T01:55:10;13.70;;;10.87;;
13868;SDS011;7004;48.206;16.402;2023-05-23T01:57:40;12.03;;;10.30;;
13868;SDS011;7004;48.206;16.402;2023-05-23T02:00:08;13.03;;;10.20;;
13868;SDS011;7004;48.206;16.402;2023-05-23T02:02:36;13.67;;;10.53;;
13868;SDS011;7004;48.206;16.402;2023-05-23T02:05:02;12.83;;;10.27;;
13868;SDS011;7004;48.206;16.402;2023-05-23T02:07:30;11.33;;;9.57;;
13868;SDS011;7004;48.206;16.402;2023-05-23T02:09:57;13.60;;;10.10;;
13868;SDS011;7004;48.206;16.402;2023-05-23T02:12:23;10.83;;;9.53;;
13868;SDS011;7004;48.206;16.402;2023-05-23T02:14:50;12.83;;;10.10;;
13868;SDS011;7004;48.206;16.402;2023-05-23T02:17:17;14.03;;;10.53;;
13868;SDS011;7004;48.206;16.402;2023-05-23T02:19:43;12.23;;;10.27;;
13868;SDS011;7004;48.206;16.402;2023-05-23T02:22:09;13.67;;;10.20;;
13868;SDS011;7004;48.206;16.402;2023-05-23T02:24:36;14.33;;;10.30;;
13868;SDS011;7004;48.206;16.402;2023-05-23T02:27:02;11.83;;;10.00;;
13868;SDS011;7004;48.206;16.402;2023-05-23T02:29:28;11.60;;;9.90;;
13868;SDS011;7004;48.206;16.402;2023-05-23T02:31:54;11.83;;;10.07;;
13868;SDS011;7004;48.206;16.402;2023-05-23T02:34:21;13.37;;;11.20;;
13868;SDS011;7004;48.206;16.402;2023-05-23T02:36:49;11.93;;;10.20;;
13868;SDS011;7004;48.206;16.402;2023-05-23T02:39:15;12.30;;;10.33;;
13868;SDS011;7004;48.206;16.402;2023-05-23T02:41:42;12.03;;;10.73;;
13868;SDS011;7004;48.206;16.402;2023-05-23T02:44:08;11.90;;;10.43;;
13868;SDS011;7004;48.206;16.402;2023-05-23T02:46:34;11.93;;;10.33;;
13868;SDS011;7004;48.206;16.402;2023-05-23T02:49:00;13.10;;;10.53;;
13868;SDS011;7004;48.206;16.402;2023-05-23T02:51:26;12.70;;;10.63;;
13868;SDS011;7004;48.206;16.402;2023-05-23T02:53:52;12.00;;;10.40;;
13868;SDS011;7004;48.206;16.402;2023-05-23T02:56:18;14.77;;;10.50;;
13868;SDS011;7004;48.206;16.402;2023-05-23T02:58:46;12.67;;;10.10;;
13868;SDS011;7004;48.206;16.402;2023-05-23T03:01:12;11.83;;;9.90;;
13868;SDS011;7004;48.206;16.402;2023-05-23T03:03:38;13.40;;;10.50;;
13868;SDS011;7004;48.206;16.402;2023-05-23T03:06:05;12.37;;;10.47;;
13868;SDS011;7004;48.206;16.402;2023-05-23T03:08:35;11.80;;;10.13;;
13868;SDS011;7004;48.206;16.402;2023-05-23T03:11:01;12.53;;;9.87;;
13868;SDS011;7004;48.206;16.402;2023-05-23T03:13:27;14.87;;;10.07;;
13868;SDS011;7004;48.206;16.402;2023-05-23T03:15:53;11.90;;;10.57;;
13868;SDS011;7004;48.206;16.402;2023-05-23T03:18:19;11.83;;;9.73;;
13868;SDS011;7004;48.206;16.402;2023-05-23T03:20:45;12.90;;;10.20;;
13868;SDS011;7004;48.206;16.402;2023-05-23T03:23:11;13.77;;;10.50;;
13868;SDS011;7004;48.206;16.402;2023-05-23T03:25:37;12.57;;;10.17;;
13868;SDS011;7004;48.206;16.402;2023-05-23T03:28:03;12.10;;;9.67;;
13868;SDS011;7004;48.206;16.402;2023-05-23T03:30:29;12.30;;;9.83;;
13868;SDS011;7004;48.206;16.402;2023-05-23T03:32:56;17.53;;;10.27;;
13868;SDS011;7004;48.206;16.402;2023-05-23T03:35:22;13.17;;;10.30;;
13868;SDS011;7004;48.206;16.402;2023-05-23T03:37:48;13.40;;;9.90;;
13868;SDS011;7004;48.206;16.402;2023-05-23T03:40:14;13.30;;;10.53;;
13868;SDS011;7004;48.206;16.402;2023-05-23T03:42:40;13.70;;;10.30;;
13868;SDS011;7004;48.206;16.402;2023-05-23T03:45:06;14.23;;;10.63;;
13868;SDS011;7004;48.206;16.402;2023-05-23T03:47:32;14.33;;;10.53;;
13868;SDS011;7004;48.206;16.402;2023-05-23T03:49:58;13.47;;;11.20;;
13868;SDS011;7004;48.206;16.402;2023-05-23T03:52:24;12.20;;;10.70;;
13868;SDS011;7004;48.206;16.402;2023-05-23T03:54:50;12.23;;;10.43;;
13868;SDS011;7004;48.206;16.402;2023-05-23T03:57:16;14.40;;;10.73;;
13868;SDS011;7004;48.206;16.402;2023-05-23T03:59:43;13.43;;;10.73;;
13868;SDS011;7004;48.206;16.402;2023-05-23T04:02:08;12.03;;;10.40;;
13868;SDS011;7004;48.206;16.402;2023-05-23T04:04:35;12.87;;;10.37;;
13868;SDS011;7004;48.206;16.402;2023-05-23T04:07:01;12.40;;;10.60;;
13868;SDS011;7004;48.206;16.402;2023-05-23T04:09:29;13.60;;;10.30;;
13868;SDS011;7004;48.206;16.402;2023-05-23T04:11:56;15.87;;;10.93;;
13868;SDS011;7004;48.206;16.402;2023-05-23T04:14:22;14.63;;;11.40;;
13868;SDS011;7004;48.206;16.402;2023-05-23T04:16:48;13.00;;;10.70;;
13868;SDS011;7004;48.206;16.402;2023-05-23T04:19:14;12.87;;;10.67;;
13868;SDS011;7004;48.206;16.402;2023-05-23T04:21:40;13.87;;;11.07;;
13868;SDS011;7004;48.206;16.402;2023-05-23T04:24:07;13.97;;;10.80;;
13868;SDS011;7004;48.206;16.402;2023-05-23T04:26:33;13.43;;;11.10;;
13868;SDS011;7004;48.206;16.402;2023-05-23T04:29:01;13.47;;;10.83;;
13868;SDS011;7004;48.206;16.402;2023-05-23T04:31:28;15.60;;;11.80;;
13868;SDS011;7004;48.206;16.402;2023-05-23T04:33:54;14.17;;;11.77;;
13868;SDS011;7004;48.206;16.402;2023-05-23T04:36:21;13.03;;;11.23;;
13868;SDS011;7004;48.206;16.402;2023-05-23T04:38:48;13.53;;;11.30;;
13868;SDS011;7004;48.206;16.402;2023-05-23T04:41:14;14.67;;;11.10;;
13868;SDS011;7004;48.206;16.402;2023-05-23T04:43:41;17.80;;;12.20;;
13868;SDS011;7004;48.206;16.402;2023-05-23T04:46:10;15.47;;;12.47;;
13868;SDS011;7004;48.206;16.402;2023-05-23T04:48:38;16.60;;;11.57;;
13868;SDS011;7004;48.206;16.402;2023-05-23T04:51:04;13.30;;;11.03;;
13868;SDS011;7004;48.206;16.402;2023-05-23T04:53:32;14.03;;;11.13;;
13868;SDS011;7004;48.206;16.402;2023-05-23T04:55:59;14.30;;;11.40;;
13868;SDS011;7004;48.206;16.402;2023-05-23T04:58:25;16.07;;;10.90;;
13868;SDS011;7004;48.206;16.402;2023-05-23T05:00:51;19.33;;;13.37;;
13868;SDS011;7004;48.206;16.402;2023-05-23T05:03:17;17.47;;;13.57;;
13868;SDS011;7004;48.206;16.402;2023-05-23T05:05:44;19.00;;;13.80;;
13868;SDS011;7004;48.206;16.402;2023-05-23T05:08:10;17.57;;;13.13;;
13868;SDS011;7004;48.206;16.402;2023-05-23T05:10:40;18.97;;;13.57;;
13868;SDS011;7004;48.206;16.402;2023-05-23T05:13:06;17.97;;;13.53;;
13868;SDS011;7004;48.206;16.402;2023-05-23T05:15:32;14.57;;;12.80;;
13868;SDS011;7004;48.206;16.402;2023-05-23T05:17:59;17.33;;;13.17;;
13868;SDS011;7004;48.206;16.402;2023-05-23T05:20:25;18.70;;;13.37;;
13868;SDS011;7004;48.206;16.402;2023-05-23T05:22:54;15.60;;;13.40;;
13868;SDS011;7004;48.206;16.402;2023-05-23T05:25:22;16.17;;;13.93;;
13868;SDS011;7004;48.206;16.402;2023-05-23T05:27:49;16.03;;;12.50;;
13868;SDS011;7004;48.206;16.402;2023-05-23T05:30:15;19.83;;;13.37;;
13868;SDS011;7004;48.206;16.402;2023-05-23T05:32:41;15.43;;;13.43;;
13868;SDS011;7004;48.206;16.402;2023-05-23T05:35:10;16.07;;;13.33;;
13868;SDS011;7004;48.206;16.402;2023-05-23T05:37:38;17.40;;;14.67;;
13868;SDS011;7004;48.206;16.402;2023-05-23T05:40:04;15.73;;;13.73;;
13868;SDS011;7004;48.206;16.402;2023-05-23T05:42:32;15.60;;;13.60;;
13868;SDS011;7004;48.206;16.402;2023-05-23T05:44:58;18.90;;;14.03;;
13868;SDS011;7004;48.206;16.402;2023-05-23T05:47:25;16.93;;;13.67;;
13868;SDS011;7004;48.206;16.402;2023-05-23T05:49:51;16.10;;;12.97;;
13868;SDS011;7004;48.206;16.402;2023-05-23T05:52:17;15.27;;;12.97;;
13868;SDS011;7004;48.206;16.402;2023-05-23T05:54:42;17.13;;;12.70;;
13868;SDS011;7004;48.206;16.402;2023-05-23T05:57:08;14.83;;;12.53;;
13868;SDS011;7004;48.206;16.402;2023-05-23T05:59:34;15.33;;;12.47;;
13868;SDS011;7004;48.206;16.402;2023-05-23T06:02:01;15.47;;;11.03;;
13868;SDS011;7004;48.206;16.402;2023-05-23T06:04:27;15.37;;;11.13;;
13868;SDS011;7004;48.206;16.402;2023-05-23T06:06:53;12.63;;;10.73;;
13868;SDS011;7004;48.206;16.402;2023-05-23T06:09:19;13.57;;;10.70;;
13868;SDS011;7004;48.206;16.402;2023-05-23T06:11:45;12.60;;;10.23;;
13868;SDS011;7004;48.206;16.402;2023-05-23T06:14:11;11.50;;;9.43;;
13868;SDS011;7004;48.206;16.402;2023-05-23T06:16:37;13.73;;;9.70;;
13868;SDS011;7004;48.206;16.402;2023-05-23T06:19:03;11.10;;;9.60;;
13868;SDS011;7004;48.206;16.402;2023-05-23T06:21:29;10.87;;;8.50;;
13868;SDS011;7004;48.206;16.402;2023-05-23T06:23:55;13.30;;;8.70;;
13868;SDS011;7004;48.206;16.402;2023-05-23T06:26:21;13.13;;;9.73;;
13868;SDS011;7004;48.206;16.402;2023-05-23T06:28:47;9.93;;;8.80;;
13868;SDS011;7004;48.206;16.402;2023-05-23T06:31:13;13.27;;;8.90;;
13868;SDS011;7004;48.206;16.402;2023-05-23T06:33:39;10.20;;;9.17;;
13868;SDS011;7004;48.206;16.402;2023-05-23T06:36:07;12.70;;;9.20;;
13868;SDS011;7004;48.206;16.402;2023-05-23T06:38:33;10.57;;;9.47;;
13868;SDS011;7004;48.206;16.402;2023-05-23T06:40:59;10.73;;;9.60;;
13868;SDS011;7004;48.206;16.402;2023-05-23T06:43:25;10.47;;;9.37;;
13868;SDS011;7004;48.206;16.402;2023-05-23T06:45:52;10.07;;;9.07;;
13868;SDS011;7004;48.206;16.402;2023-05-23T06:48:18;11.73;;;10.07;;
13868;SDS011;7004;48.206;16.402;2023-05-23T06:50:44;12.67;;;10.83;;
13868;SDS011;7004;48.206;16.402;2023-05-23T06:53:10;13.10;;;9.77;;
13868;SDS011;7004;48.206;16.402;2023-05-23T06:55:36;14.50;;;10.00;;
13868;SDS011;7004;48.206;16.402;2023-05-23T06:58:02;10.77;;;9.53;;
13868;SDS011;7004;48.206;16.402;2023-05-23T07:00:29;12.60;;;10.13;;
13868;SDS011;7004;48.206;16.402;2023-05-23T07:02:56;14.60;;;9.53;;
13868;SDS011;7004;48.206;16.402;2023-05-23T07:05:27;13.93;;;10.40;;
13868;SDS011;7004;48.206;16.402;2023-05-23T07:07:53;10.73;;;9.17;;
13868;SDS011;7004;48.206;16.402;2023-05-23T07:10:20;10.47;;;9.47;;
13868;SDS011;7004;48.206;16.402;2023-05-23T07:12:46;11.03;;;9.77;;
13868;SDS011;7004;48.206;16.402;2023-05-23T07:15:12;12.67;;;9.40;;
13868;SDS011;7004;48.206;16.402;2023-05-23T07:17:39;13.93;;;10.33;;
13868;SDS011;7004;48.206;16.402;2023-05-23T07:20:05;14.10;;;10.67;;
13868;SDS011;7004;48.206;16.402;2023-05-23T07:22:32;13.47;;;9.87;;
13868;SDS011;7004;48.206;16.402;2023-05-23T07:24:58;13.40;;;11.23;;
13868;SDS011;7004;48.206;16.402;2023-05-23T07:27:25;11.13;;;10.03;;
13868;SDS011;7004;48.206;16.402;2023-05-23T07:29:51;11.07;;;9.03;;
13868;SDS011;7004;48.206;16.402;2023-05-23T07:32:18;10.40;;;9.40;;
13868;SDS011;7004;48.206;16.402;2023-05-23T07:34:44;12.20;;;9.80;;
13868;SDS011;7004;48.206;16.402;2023-05-23T07:37:10;13.40;;;10.23;;
13868;SDS011;7004;48.206;16.402;2023-05-23T07:39:36;11.23;;;9.50;;
13868;SDS011;7004;48.206;16.402;2023-05-23T07:42:02;10.90;;;9.67;;
13868;SDS011;7004;48.206;16.402;2023-05-23T07:44:28;11.27;;;10.13;;
13868;SDS011;7004;48.206;16.402;2023-05-23T07:46:54;11.23;;;10.07;;
13868;SDS011;7004;48.206;16.402;2023-05-23T07:49:21;13.97;;;10.90;;
13868;SDS011;7004;48.206;16.402;2023-05-23T07:51:47;12.07;;;10.07;;
13868;SDS011;7004;48.206;16.402;2023-05-23T07:54:13;10.80;;;9.37;;
13868;SDS011;7004;48.206;16.402;2023-05-23T07:56:39;12.40;;;9.70;;
13868;SDS011;7004;48.206;16.402;2023-05-23T07:59:07;10.20;;;9.20;;
13868;SDS011;7004;48.206;16.402;2023-05-23T08:01:33;13.57;;;10.50;;
13868;SDS011;7004;48.206;16.402;2023-05-23T08:04:00;12.40;;;10.50;;
13868;SDS011;7004;48.206;16.402;2023-05-23T08:06:28;14.70;;;10.33;;
13868;SDS011;7004;48.206;16.402;2023-05-23T08:08:54;11.17;;;10.00;;
13868;SDS011;7004;48.206;16.402;2023-05-23T08:11:20;10.67;;;9.43;;
13868;SDS011;7004;48.206;16.402;2023-05-23T08:13:46;13.07;;;9.70;;
13868;SDS011;7004;48.206;16.402;2023-05-23T08:16:12;11.07;;;9.13;;
13868;SDS011;7004;48.206;16.402;2023-05-23T08:18:38;10.63;;;9.10;;
13868;SDS011;7004;48.206;16.402;2023-05-23T08:21:04;11.03;;;9.37;;
13868;SDS011;7004;48.206;16.402;2023-05-23T08:23:30;12.50;;;9.27;;
13868;SDS011;7004;48.206;16.402;2023-05-23T08:25:56;8.40;;;7.60;;
13868;SDS011;7004;48.206;16.402;2023-05-23T08:28:22;9.63;;;8.23;;
13868;SDS011;7004;48.206;16.402;2023-05-23T08:30:48;8.50;;;7.70;;
13868;SDS011;7004;48.206;16.402;2023-05-23T08:33:16;11.17;;;8.17;;
13868;SDS011;7004;48.206;16.402;2023-05-23T08:35:42;8.23;;;7.43;;
13868;SDS011;7004;48.206;16.402;2023-05-23T08:38:08;8.27;;;7.23;;
13868;SDS011;7004;48.206;16.402;2023-05-23T08:40:34;8.57;;;7.63;;
13868;SDS011;7004;48.206;16.402;2023-05-23T08:43:01;9.13;;;8.23;;
13868;SDS011;7004;48.206;16.402;2023-05-23T08:45:27;8.27;;;7.37;;
13868;SDS011;7004;48.206;16.402;2023-05-23T08:47:54;8.40;;;7.60;;
13868;SDS011;7004;48.206;16.402;2023-05-23T08:50:24;8.97;;;7.63;;
13868;SDS011;7004;48.206;16.402;2023-05-23T08:52:54;10.03;;;8.20;;
13868;SDS011;7004;48.206;16.402;2023-05-23T08:55:24;9.10;;;7.93;;
13868;SDS011;7004;48.206;16.402;2023-05-23T08:57:53;10.27;;;7.80;;
13868;SDS011;7004;48.206;16.402;2023-05-23T09:00:21;8.77;;;7.90;;
13868;SDS011;7004;48.206;16.402;2023-05-23T09:02:49;8.83;;;7.77;;
13868;SDS011;7004;48.206;16.402;2023-05-23T09:05:15;8.63;;;7.73;;
13868;SDS011;7004;48.206;16.402;2023-05-23T09:07:45;9.50;;;8.50;;
13868;SDS011;7004;48.206;16.402;2023-05-23T09:10:13;9.53;;;8.53;;
13868;SDS011;7004;48.206;16.402;2023-05-23T09:12:44;8.83;;;7.93;;
13868;SDS011;7004;48.206;16.402;2023-05-23T09:15:11;9.43;;;8.50;;
13868;SDS011;7004;48.206;16.402;2023-05-23T09:17:37;9.93;;;8.00;;
13868;SDS011;7004;48.206;16.402;2023-05-23T09:20:14;9.47;;;8.47;;
13868;SDS011;7004;48.206;16.402;2023-05-23T09:22:45;8.80;;;7.90;;
13868;SDS011;7004;48.206;16.402;2023-05-23T09:25:12;8.50;;;7.70;;
13868;SDS011;7004;48.206;16.402;2023-05-23T09:27:40;9.43;;;8.53;;
13868;SDS011;7004;48.206;16.402;2023-05-23T09:30:08;9.07;;;8.17;;
13868;SDS011;7004;48.206;16.402;2023-05-23T09:32:36;9.00;;;8.10;;
13868;SDS011;7004;48.206;16.402;2023-05-23T09:35:07;9.17;;;8.27;;
13868;SDS011;7004;48.206;16.402;2023-05-23T09:37:38;9.10;;;8.30;;
13868;SDS011;7004;48.206;16.402;2023-05-23T09:40:10;8.80;;;7.90;;
13868;SDS011;7004;48.206;16.402;2023-05-23T09:42:45;9.50;;;8.50;;
13868;SDS011;7004;48.206;16.402;2023-05-23T09:45:13;10.07;;;9.07;;
13868;SDS011;7004;48.206;16.402;2023-05-23T09:47:51;9.63;;;8.73;;
13868;SDS011;7004;48.206;16.402;2023-05-23T09:50:17;8.80;;;7.87;;
13868;SDS011;7004;48.206;16.402;2023-05-23T09:52:45;10.00;;;8.80;;
13868;SDS011;7004;48.206;16.402;2023-05-23T09:55:15;8.43;;;7.63;;
13868;SDS011;7004;48.206;16.402;2023-05-23T09:57:42;8.93;;;8.13;;
13868;SDS011;7004;48.206;16.402;2023-05-23T10:00:09;10.03;;;8.20;;
13868;SDS011;7004;48.206;16.402;2023-05-23T10:05:46;9.33;;;8.03;;
13868;SDS011;7004;48.206;16.402;2023-05-23T10:08:29;8.77;;;7.93;;
13868;SDS011;7004;48.206;16.402;2023-05-23T10:14:08;9.87;;;8.90;;
13868;SDS011;7004;48.206;16.402;2023-05-23T10:22:22;12.43;;;8.77;;
13868;SDS011;7004;48.206;16.402;2023-05-23T10:24:49;9.53;;;8.63;;
13868;SDS011;7004;48.206;16.402;2023-05-23T10:27:16;9.50;;;8.50;;
13868;SDS011;7004;48.206;16.402;2023-05-23T10:29:42;9.90;;;8.27;;
13868;SDS011;7004;48.206;16.402;2023-05-23T10:32:09;9.70;;;8.70;;
13868;SDS011;7004;48.206;16.402;2023-05-23T10:34:54;9.77;;;8.77;;
13868;SDS011;7004;48.206;16.402;2023-05-23T10:40:16;9.70;;;8.73;;
13868;SDS011;7004;48.206;16.402;2023-05-23T10:43:27;11.47;;;9.87;;
13868;SDS011;7004;48.206;16.402;2023-05-23T10:46:11;10.67;;;9.53;;
13868;SDS011;7004;48.206;16.402;2023-05-23T10:48:42;9.47;;;8.57;;
13868;SDS011;7004;48.206;16.402;2023-05-23T10:53:40;10.20;;;9.20;;
13868;SDS011;7004;48.206;16.402;2023-05-23T10:56:17;10.23;;;9.23;;
13868;SDS011;7004;48.206;16.402;2023-05-23T10:58:55;9.47;;;8.47;;
13868;SDS011;7004;48.206;16.402;2023-05-23T11:01:24;10.00;;;9.00;;
13868;SDS011;7004;48.206;16.402;2023-05-23T11:03:51;9.70;;;8.80;;
13868;SDS011;7004;48.206;16.402;2023-05-23T11:06:28;9.30;;;8.33;;
13868;SDS011;7004;48.206;16.402;2023-05-23T11:14:32;8.23;;;7.43;;
13868;SDS011;7004;48.206;16.402;2023-05-23T11:19:58;9.40;;;8.40;;
13868;SDS011;7004;48.206;16.402;2023-05-23T11:22:34;9.17;;;8.27;;
13868;SDS011;7004;48.206;16.402;2023-05-23T11:25:05;9.97;;;8.30;;
13868;SDS011;7004;48.206;16.402;2023-05-23T11:27:35;9.10;;;8.30;;
13868;SDS011;7004;48.206;16.402;2023-05-23T11:30:12;10.93;;;8.83;;
13868;SDS011;7004;48.206;16.402;2023-05-23T11:32:41;9.33;;;8.37;;
13868;SDS011;7004;48.206;16.402;2023-05-23T11:35:18;9.23;;;7.90;;
13868;SDS011;7004;48.206;16.402;2023-05-23T11:37:45;9.20;;;8.30;;
13868;SDS011;7004;48.206;16.402;2023-05-23T11:43:05;9.23;;;8.33;;
13868;SDS011;7004;48.206;16.402;2023-05-23T11:45:34;8.80;;;7.93;;
13868;SDS011;7004;48.206;16.402;2023-05-23T11:48:05;8.67;;;7.63;;
13868;SDS011;7004;48.206;16.402;2023-05-23T11:50:49;8.13;;;6.50;;
13868;SDS011;7004;48.206;16.402;2023-05-23T11:53:19;7.83;;;7.03;;
13868;SDS011;7004;48.206;16.402;2023-05-23T11:55:53;7.03;;;6.30;;
13868;SDS011;7004;48.206;16.402;2023-05-23T11:58:30;8.40;;;7.30;;
13868;SDS011;7004;48.206;16.402;2023-05-23T12:00:59;7.80;;;7.10;;
13868;SDS011;7004;48.206;16.402;2023-05-23T12:03:34;8.33;;;7.50;;
13868;SDS011;7004;48.206;16.402;2023-05-23T12:06:15;7.33;;;6.73;;
13868;SDS011;7004;48.206;16.402;2023-05-23T12:08:50;8.80;;;7.50;;
13868;SDS011;7004;48.206;16.402;2023-05-23T12:11:16;8.37;;;7.53;;
13868;SDS011;7004;48.206;16.402;2023-05-23T12:13:43;8.47;;;7.67;;
13868;SDS011;7004;48.206;16.402;2023-05-23T12:16:09;8.87;;;7.70;;
13868;SDS011;7004;48.206;16.402;2023-05-23T12:18:41;8.60;;;7.63;;
13868;SDS011;7004;48.206;16.402;2023-05-23T12:21:07;8.37;;;7.50;;
13868;SDS011;7004;48.206;16.402;2023-05-23T12:23:34;7.37;;;6.57;;
13868;SDS011;7004;48.206;16.402;2023-05-23T12:26:03;7.07;;;6.37;;
13868;SDS011;7004;48.206;16.402;2023-05-23T12:28:37;7.90;;;6.40;;
13868;SDS011;7004;48.206;16.402;2023-05-23T12:33:44;8.00;;;7.17;;
13868;SDS011;7004;48.206;16.402;2023-05-23T12:36:15;7.80;;;7.10;;
13868;SDS011;7004;48.206;16.402;2023-05-23T12:38:48;7.43;;;6.73;;
13868;SDS011;7004;48.206;16.402;2023-05-23T12:41:14;8.03;;;7.23;;
13868;SDS011;7004;48.206;16.402;2023-05-23T12:43:54;8.43;;;7.63;;
13868;SDS011;7004;48.206;16.402;2023-05-23T12:46:21;7.93;;;6.90;;
13868;SDS011;7004;48.206;16.402;2023-05-23T12:48:50;8.93;;;8.03;;
13868;SDS011;7004;48.206;16.402;2023-05-23T12:51:17;8.10;;;6.90;;
13868;SDS011;7004;48.206;16.402;2023-05-23T12:53:43;8.10;;;7.30;;
13868;SDS011;7004;48.206;16.402;2023-05-23T12:56:09;8.73;;;7.83;;
13868;SDS011;7004;48.206;16.402;2023-05-23T12:58:36;11.53;;;9.50;;
13868;SDS011;7004;48.206;16.402;2023-05-23T13:01:02;11.13;;;9.07;;
13868;SDS011;7004;48.206;16.402;2023-05-23T13:03:28;12.50;;;10.23;;
13868;SDS011;7004;48.206;16.402;2023-05-23T13:05:58;9.50;;;8.60;;
13868;SDS011;7004;48.206;16.402;2023-05-23T13:08:25;9.90;;;8.00;;
13868;SDS011;7004;48.206;16.402;2023-05-23T13:10:54;9.80;;;8.80;;
13868;SDS011;7004;48.206;16.402;2023-05-23T13:13:21;9.60;;;8.53;;
13868;SDS011;7004;48.206;16.402;2023-05-23T13:15:47;11.73;;;9.67;;
13868;SDS011;7004;48.206;16.402;2023-05-23T13:18:14;9.97;;;8.70;;
13868;SDS011;7004;48.206;16.402;2023-05-23T13:20:40;10.57;;;9.23;;
13868;SDS011;7004;48.206;16.402;2023-05-23T13:23:06;10.07;;;9.07;;
13868;SDS011;7004;48.206;16.402;2023-05-23T13:25:33;12.27;;;9.23;;
13868;SDS011;7004;48.206;16.402;2023-05-23T13:28:00;10.30;;;9.30;;
13868;SDS011;7004;48.206;16.402;2023-05-23T13:30:26;10.03;;;9.03;;
13868;SDS011;7004;48.206;16.402;2023-05-23T13:32:53;9.50;;;8.50;;
13868;SDS011;7004;48.206;16.402;2023-05-23T13:35:20;10.03;;;8.83;;
13868;SDS011;7004;48.206;16.402;2023-05-23T13:37:47;9.90;;;8.90;;
13868;SDS011;7004;48.206;16.402;2023-05-23T13:40:18;9.33;;;8.43;;
13868;SDS011;7004;48.206;16.402;2023-05-23T13:42:46;9.20;;;8.40;;
13868;SDS011;7004;48.206;16.402;2023-05-23T13:45:17;13.30;;;10.03;;
13868;SDS011;7004;48.206;16.402;2023-05-23T13:47:44;10.57;;;9.30;;
13868;SDS011;7004;48.206;16.402;2023-05-23T13:50:11;11.70;;;10.27;;
13868;SDS011;7004;48.206;16.402;2023-05-23T13:52:37;10.53;;;9.43;;
13868;SDS011;7004;48.206;16.402;2023-05-23T13:55:03;10.47;;;9.43;;
13868;SDS011;7004;48.206;16.402;2023-05-23T13:57:31;11.30;;;9.87;;
13868;SDS011;7004;48.206;16.402;2023-05-23T13:59:57;10.37;;;9.13;;
13868;SDS011;7004;48.206;16.402;2023-05-23T14:02:23;12.27;;;9.73;;
13868;SDS011;7004;48.206;16.402;2023-05-23T14:04:49;10.93;;;9.77;;
13868;SDS011;7004;48.206;16.402;2023-05-23T14:07:16;12.53;;;9.23;;
13868;SDS011;7004;48.206;16.402;2023-05-23T14:09:43;9.83;;;8.83;;
13868;SDS011;7004;48.206;16.402;2023-05-23T14:12:09;8.83;;;7.93;;
13868;SDS011;7004;48.206;16.402;2023-05-23T14:14:35;7.87;;;7.17;;
13868;SDS011;7004;48.206;16.402;2023-05-23T14:17:01;9.20;;;7.20;;
13868;SDS011;7004;48.206;16.402;2023-05-23T14:19:27;7.60;;;6.80;;
13868;SDS011;7004;48.206;16.402;2023-05-23T14:21:53;6.70;;;6.10;;
13868;SDS011;7004;48.206;16.402;2023-05-23T14:24:19;7.00;;;6.07;;
13868;SDS011;7004;48.206;16.402;2023-05-23T14:26:46;7.13;;;6.03;;
13868;SDS011;7004;48.206;16.402;2023-05-23T14:29:14;6.27;;;5.60;;
13868;SDS011;7004;48.206;16.402;2023-05-23T14:31:41;6.70;;;6.03;;
13868;SDS011;7004;48.206;16.402;2023-05-23T14:34:07;6.63;;;6.03;;
13868;SDS011;7004;48.206;16.402;2023-05-23T14:36:33;6.70;;;5.80;;
13868;SDS011;7004;48.206;16.402;2023-05-23T14:39:01;7.20;;;5.93;;
13868;SDS011;7004;48.206;16.402;2023-05-23T14:41:28;6.60;;;6.00;;
13868;SDS011;7004;48.206;16.402;2023-05-23T14:43:56;6.60;;;5.90;;
13868;SDS011;7004;48.206;16.402;2023-05-23T14:46:22;6.57;;;5.67;;
13868;SDS011;7004;48.206;16.402;2023-05-23T14:48:48;7.43;;;5.97;;
13868;SDS011;7004;48.206;16.402;2023-05-23T14:51:14;6.83;;;5.83;;
13868;SDS011;7004;48.206;16.402;2023-05-23T14:53:40;6.73;;;6.03;;
13868;SDS011;7004;48.206;16.402;2023-05-23T14:56:06;8.83;;;5.87;;
13868;SDS011;7004;48.206;16.402;2023-05-23T14:58:32;6.33;;;5.73;;
13868;SDS011;7004;48.206;16.402;2023-05-23T15:00:58;7.10;;;6.07;;
13868;SDS011;7004;48.206;16.402;2023-05-23T15:03:24;6.83;;;5.70;;
13868;SDS011;7004;48.206;16.402;2023-05-23T15:05:51;6.63;;;5.20;;
13868;SDS011;7004;48.206;16.402;2023-05-23T15:08:17;6.53;;;5.67;;
13868;SDS011;7004;48.206;16.402;2023-05-23T15:10:44;6.03;;;5.33;;
13868;SDS011;7004;48.206;16.402;2023-05-23T15:13:10;6.27;;;5.67;;
13868;SDS011;7004;48.206;16.402;2023-05-23T15:15:37;8.93;;;6.80;;
13868;SDS011;7004;48.206;16.402;2023-05-23T15:18:05;6.60;;;5.90;;
13868;SDS011;7004;48.206;16.402;2023-05-23T15:20:34;7.30;;;5.97;;